Dallas, TX (75252)

7:53 AM CST on December 26, 2014 (GMT -0600)
Frankford/Preston | Change Station
CLOSE
Current Station
Personal Weather Station
Location: Dallas, TX
Elevation: 669 ft
Nearby Weather Stations

Elev 669 ft 32.99 °N, 96.80 °W | Updated 9 seconds ago

Overcast
Overcast
54.5 °F
Feels Like 54.5 °F
N
2.7
Wind Variable Wind from ESE
Gusts 5.3 mph

Today
High -- | Low -- °F
--% Chance of Precip.
Yesterday
High -- | Low -- °F
Precip. -- in
7:28 AM 5:27 PM
Waxing Crescent, 26% visible
Pressure 29.93 in
Visibility 13.0 miles
Clouds Mostly Cloudy 4100 ft
Dew Point 50 °F
Humidity 86%
Rainfall 0.00 in
Snow Depth Not available.
UV 0 out of 12
Pollen 10.50 out of 12
Air Quality Not available.
Flu Activity Not available.
METAR KADS 261148Z 13009G15KT 13SM BKN041 12/08 A2993

More Conditions Fewer Conditions

Pressure 29.93 in
Visibility 13.0 miles
Clouds Mostly Cloudy 4100 ft
Dew Point 50 °F
Humidity 86%
Rainfall 0.00 in
Snow Depth Not available.
UV 0 out of 12
Pollen 10.50 out of 12
Air Quality Not available.
Flu Activity Not available.
METAR KADS 261148Z 13009G15KT 13SM BKN041 12/08 A2993

More Conditions Fewer Conditions

10-Day Weather Forecast

Almanac

Astronomy

Dec. 26, 2014 Rise Set
Actual Time
Civil Twilight
Nautical Twilight
Astronomical Twilight
Moon
Length of Visible Light
Length of Day
Tomorrow will be .
, % of the Moon is Illuminated

Today's Extremes

State Highs State Lows

Community

WunderPhotos

Upload Photos

1,780,593 photos uploaded!

WunderBlogs® & News

Nearby

Air Quality

  Air Quality AQ Index Pollutant
Not available.

Snow Depth

Station Depth Elevation

Earthquake Activity

City Distance Mag. Time & Date
Minimum magnitude displayed is 2.5.

Coastal Water Temperatures

Place Temperature

Nearby Weather Stations